createdAt,value
2022-08-07T00:02:49.924Z,13.70
2022-08-07T00:07:18.903Z,13.60
2022-08-07T00:11:54.225Z,13.60
2022-08-07T00:16:27.891Z,13.50
2022-08-07T00:21:01.911Z,13.40
2022-08-07T00:25:28.814Z,13.40
2022-08-07T00:30:04.957Z,13.30
2022-08-07T00:34:49.267Z,13.30
2022-08-07T00:39:17.224Z,13.20
2022-08-07T00:44:00.889Z,13.20
2022-08-07T00:48:31.890Z,13.10
2022-08-07T00:52:57.688Z,13.00
2022-08-07T00:57:26.439Z,13.00
2022-08-07T01:01:52.027Z,12.90
2022-08-07T01:06:23.273Z,12.90
2022-08-07T01:10:56.276Z,12.80
2022-08-07T01:15:35.678Z,12.80
2022-08-07T01:20:17.037Z,12.70
2022-08-07T01:24:43.421Z,12.60
2022-08-07T01:29:14.553Z,12.60
2022-08-07T01:33:55.605Z,12.50
2022-08-07T01:38:24.834Z,12.40
2022-08-07T01:42:57.564Z,12.40
2022-08-07T01:48:19.394Z,12.30
2022-08-07T01:52:11.823Z,12.30
2022-08-07T01:56:52.305Z,12.30
2022-08-07T02:02:02.186Z,12.30
2022-08-07T02:06:30.911Z,12.30
2022-08-07T02:10:59.753Z,12.20
2022-08-07T02:15:27.901Z,12.20
2022-08-07T02:20:07.651Z,12.10
2022-08-07T02:24:35.662Z,12.00
2022-08-07T02:29:06.597Z,11.90
2022-08-07T02:33:57.500Z,11.90
2022-08-07T02:38:31.951Z,11.90
2022-08-07T02:42:58.810Z,11.80
2022-08-07T02:47:24.222Z,11.80
2022-08-07T02:51:52.282Z,11.80
2022-08-07T02:56:21.842Z,11.70
2022-08-07T03:00:51.864Z,11.70
2022-08-07T03:05:20.764Z,11.60
2022-08-07T03:09:52.002Z,11.60
2022-08-07T03:14:18.677Z,11.50
2022-08-07T03:18:47.951Z,11.50
2022-08-07T03:23:18.869Z,11.50
2022-08-07T03:28:08.873Z,11.50
2022-08-07T03:32:39.896Z,11.40
2022-08-07T03:37:17.973Z,11.40
2022-08-07T03:41:50.773Z,11.30
2022-08-07T03:46:18.537Z,11.30
2022-08-07T03:50:55.713Z,11.20
2022-08-07T03:55:22.850Z,11.20
2022-08-07T04:00:02.555Z,11.10
2022-08-07T04:04:32.696Z,11.10
2022-08-07T04:08:58.522Z,11.10
2022-08-07T04:13:24.345Z,11.10
2022-08-07T04:18:56.178Z,11.20
2022-08-07T04:22:41.195Z,11.10
2022-08-07T04:27:20.329Z,11.10
2022-08-07T04:32:09.997Z,11.20
2022-08-07T04:36:36.517Z,11.10
2022-08-07T04:41:02.135Z,11.10
2022-08-07T04:46:08.133Z,11.10
2022-08-07T04:51:05.578Z,11.10
2022-08-07T04:58:15.550Z,11.20
2022-08-07T05:00:47.694Z,11.30
2022-08-07T05:05:53.041Z,11.30
2022-08-07T05:10:20.122Z,11.40
2022-08-07T05:14:55.370Z,11.60
2022-08-07T05:19:44.208Z,11.70
2022-08-07T05:24:13.418Z,11.80
2022-08-07T05:28:40.552Z,11.90
2022-08-07T05:33:06.525Z,12.00
2022-08-07T05:37:37.776Z,12.20
2022-08-07T05:42:12.403Z,12.30
2022-08-07T05:46:41.116Z,12.50
2022-08-07T05:51:10.000Z,12.60
2022-08-07T05:56:03.815Z,12.80
2022-08-07T06:00:23.683Z,12.90
2022-08-07T06:04:57.421Z,13.10
2022-08-07T06:09:22.803Z,13.30
2022-08-07T06:14:13.298Z,13.50
2022-08-07T06:18:51.810Z,13.80
2022-08-07T06:23:46.529Z,14.00
2022-08-07T06:28:09.219Z,14.20
2022-08-07T06:32:39.727Z,14.40
2022-08-07T06:37:05.023Z,14.70
2022-08-07T06:42:01.094Z,14.90
2022-08-07T06:46:35.350Z,15.10
2022-08-07T06:51:08.322Z,15.30
2022-08-07T06:55:53.607Z,15.60
2022-08-07T07:00:21.653Z,15.90
2022-08-07T07:04:54.781Z,16.10
2022-08-07T07:09:31.673Z,16.40
2022-08-07T07:14:02.213Z,16.60
2022-08-07T07:18:47.856Z,16.90
2022-08-07T07:24:06.074Z,17.10
2022-08-07T07:34:30.556Z,17.60
2022-08-07T07:38:57.978Z,17.80
2022-08-07T07:43:47.481Z,18.00
2022-08-07T07:48:34.847Z,18.20
2022-08-07T07:53:02.159Z,18.50
2022-08-07T07:57:43.786Z,18.70
2022-08-07T08:02:22.691Z,18.80
2022-08-07T08:07:02.767Z,19.00
2022-08-07T08:11:59.365Z,19.20
2022-08-07T08:16:25.145Z,19.40
2022-08-07T08:20:51.897Z,19.60
2022-08-07T08:25:42.740Z,19.80
2022-08-07T08:30:17.522Z,20.00
2022-08-07T08:34:48.170Z,20.20
2022-08-07T08:39:15.565Z,20.50
2022-08-07T08:43:59.291Z,20.60
2022-08-07T08:48:42.482Z,20.80
2022-08-07T08:53:48.676Z,20.90
2022-08-07T08:58:50.550Z,21.10
2022-08-07T09:03:47.555Z,21.30
2022-08-07T09:08:49.863Z,21.40
2022-08-07T09:13:40.058Z,21.80
2022-08-07T09:18:23.519Z,21.80
2022-08-07T09:24:32.611Z,22.00
2022-08-07T09:30:01.624Z,22.10
2022-08-07T09:33:57.935Z,22.40
2022-08-07T09:38:57.752Z,22.50
2022-08-07T09:44:06.370Z,22.50
2022-08-07T09:50:01.835Z,22.60
2022-08-07T09:54:07.179Z,22.90
2022-08-07T09:58:51.174Z,23.20
2022-08-07T10:04:03.725Z,23.30
2022-08-07T10:08:49.719Z,23.60
2022-08-07T10:14:01.027Z,23.60
2022-08-07T10:19:03.656Z,23.60
2022-08-07T10:24:24.895Z,23.70
2022-08-07T10:29:45.708Z,23.90
2022-08-07T10:34:37.375Z,24.10
2022-08-07T10:40:03.271Z,24.20
2022-08-07T10:44:45.233Z,24.10
2022-08-07T10:49:49.843Z,24.00
2022-08-07T10:54:31.018Z,24.10
2022-08-07T10:59:21.534Z,24.00
2022-08-07T11:04:23.136Z,24.00
2022-08-07T11:09:11.651Z,24.10
2022-08-07T11:14:56.875Z,24.40
2022-08-07T11:18:58.212Z,24.60
2022-08-07T11:24:13.032Z,24.70
2022-08-07T11:28:55.621Z,24.60
2022-08-07T11:33:48.748Z,24.60
2022-08-07T11:38:38.803Z,24.80
2022-08-07T11:43:41.552Z,25.00
2022-08-07T11:48:36.371Z,25.10
2022-08-07T11:54:00.931Z,25.00
2022-08-07T11:58:36.223Z,24.90
2022-08-07T12:03:44.336Z,24.90
2022-08-07T12:08:25.477Z,25.00
2022-08-07T12:13:35.539Z,25.20
2022-08-07T12:18:16.102Z,25.40
2022-08-07T12:23:15.016Z,25.80
2022-08-07T12:28:08.471Z,26.10
2022-08-07T12:32:48.204Z,26.30
2022-08-07T12:37:27.852Z,26.40
2022-08-07T12:42:05.780Z,26.40
2022-08-07T12:47:10.206Z,26.30
2022-08-07T12:51:51.523Z,26.60
2022-08-07T12:56:44.111Z,26.90
2022-08-07T13:01:32.123Z,27.20
2022-08-07T13:07:00.682Z,27.10
2022-08-07T13:12:03.518Z,26.80
2022-08-07T13:17:10.538Z,26.80
2022-08-07T13:21:54.975Z,26.80
2022-08-07T13:26:44.550Z,26.80
2022-08-07T13:31:22.902Z,26.90
2022-08-07T13:36:05.285Z,27.20
2022-08-07T13:40:43.339Z,27.20
2022-08-07T13:50:34.995Z,27.40
2022-08-07T13:54:22.505Z,27.60
2022-08-07T13:59:02.526Z,27.40
2022-08-07T14:04:05.430Z,27.00
2022-08-07T14:08:24.463Z,26.70
2022-08-07T14:12:57.788Z,26.60
2022-08-07T14:18:12.197Z,26.60
2022-08-07T14:22:34.365Z,26.50
2022-08-07T14:31:56.337Z,25.90
2022-08-07T14:36:24.354Z,25.70
2022-08-07T14:40:59.615Z,26.10
2022-08-07T14:45:48.717Z,26.40
2022-08-07T14:50:19.790Z,26.40
2022-08-07T14:54:49.140Z,26.50
2022-08-07T15:00:05.036Z,26.60
2022-08-07T15:04:11.344Z,26.70
2022-08-07T15:08:49.757Z,26.70
2022-08-07T15:13:25.415Z,26.80
2022-08-07T15:18:02.645Z,26.80
2022-08-07T15:22:33.396Z,27.00
2022-08-07T15:27:17.236Z,26.70
2022-08-07T15:32:00.571Z,26.60
2022-08-07T15:37:04.605Z,26.40
2022-08-07T15:41:23.551Z,26.30
2022-08-07T15:51:07.880Z,26.20
2022-08-07T15:55:53.796Z,26.40
2022-08-07T16:00:32.031Z,26.40
2022-08-07T16:05:04.335Z,26.40
2022-08-07T16:09:53.863Z,26.20
2022-08-07T16:14:50.768Z,26.20
2022-08-07T16:19:59.764Z,26.30
2022-08-07T16:24:52.739Z,26.80
2022-08-07T16:30:09.780Z,27.00
2022-08-07T16:34:57.693Z,27.40
2022-08-07T16:40:23.316Z,27.40
2022-08-07T16:45:14.982Z,27.20
2022-08-07T16:50:39.406Z,26.40
2022-08-07T16:55:50.653Z,26.10
2022-08-07T17:00:29.792Z,25.80
2022-08-07T17:05:05.019Z,25.50
2022-08-07T17:10:05.487Z,25.30
2022-08-07T17:14:54.053Z,25.20
2022-08-07T17:20:02.310Z,25.20
2022-08-07T17:24:29.587Z,25.40
2022-08-07T17:29:08.281Z,25.70
2022-08-07T17:34:10.163Z,25.80
2022-08-07T17:39:10.691Z,25.70
2022-08-07T17:44:02.321Z,25.40
2022-08-07T17:48:45.146Z,25.10
2022-08-07T17:54:01.436Z,24.90
2022-08-07T17:58:29.991Z,24.60
2022-08-07T18:03:10.940Z,24.50
2022-08-07T18:07:55.287Z,24.30
2022-08-07T18:13:10.973Z,24.30
2022-08-07T18:18:47.318Z,24.30
2022-08-07T18:22:54.319Z,24.10
2022-08-07T18:28:12.403Z,24.00
2022-08-07T18:33:33.666Z,23.80
2022-08-07T18:38:55.411Z,23.70
2022-08-07T18:43:49.047Z,23.50
2022-08-07T18:50:31.819Z,23.30
2022-08-07T18:54:27.725Z,23.20
2022-08-07T18:59:47.734Z,23.10
2022-08-07T19:04:56.212Z,22.80
2022-08-07T19:09:59.130Z,22.60
2022-08-07T19:16:03.272Z,22.50
2022-08-07T19:20:30.226Z,22.30
2022-08-07T19:24:55.925Z,22.00
2022-08-07T19:31:05.815Z,21.80
2022-08-07T19:34:14.868Z,21.60
2022-08-07T19:39:02.122Z,21.50
2022-08-07T19:43:50.123Z,21.30
2022-08-07T19:48:24.129Z,21.10
2022-08-07T19:52:58.666Z,20.90
2022-08-07T19:58:03.416Z,20.70
2022-08-07T20:02:35.015Z,20.60
2022-08-07T20:07:09.340Z,20.40
2022-08-07T20:12:22.768Z,20.20
2022-08-07T20:16:35.328Z,20.10
2022-08-07T20:21:21.189Z,19.90
2022-08-07T20:25:51.079Z,19.70
2022-08-07T20:30:22.527Z,19.60
2022-08-07T20:34:51.649Z,19.50
2022-08-07T20:40:04.113Z,19.30
2022-08-07T20:44:16.775Z,19.20
2022-08-07T20:49:53.946Z,19.00
2022-08-07T20:54:03.086Z,18.90
2022-08-07T20:58:28.583Z,18.80
2022-08-07T21:02:58.615Z,18.70
2022-08-07T21:07:26.880Z,18.50
2022-08-07T21:11:57.542Z,18.40
2022-08-07T21:16:56.930Z,18.30
2022-08-07T21:21:48.955Z,18.20
2022-08-07T21:26:59.144Z,18.00
2022-08-07T21:32:43.096Z,17.90
2022-08-07T21:36:50.329Z,17.80
2022-08-07T21:41:38.197Z,17.70
2022-08-07T21:46:25.222Z,17.50
2022-08-07T21:51:25.366Z,17.40
2022-08-07T21:56:16.896Z,17.40
2022-08-07T22:01:19.965Z,17.20
2022-08-07T22:06:30.026Z,17.00
2022-08-07T22:11:03.878Z,16.90
2022-08-07T22:16:45.678Z,16.90
2022-08-07T22:20:51.334Z,16.80
2022-08-07T22:25:36.265Z,16.70
2022-08-07T22:30:21.058Z,16.60
2022-08-07T22:35:00.895Z,16.50
2022-08-07T22:39:52.750Z,16.40
2022-08-07T22:44:25.103Z,16.30
2022-08-07T22:49:39.595Z,16.20
2022-08-07T22:54:48.965Z,16.20
2022-08-07T22:59:49.722Z,16.00
2022-08-07T23:06:10.127Z,15.90
2022-08-07T23:10:36.329Z,15.90
2022-08-07T23:15:21.675Z,15.70
2022-08-07T23:20:51.157Z,15.70
2022-08-07T23:26:05.516Z,15.60
2022-08-07T23:32:49.479Z,15.50
2022-08-07T23:36:29.109Z,15.40
2022-08-07T23:42:05.594Z,15.30
2022-08-07T23:47:09.409Z,15.40
2022-08-07T23:53:02.036Z,15.30
2022-08-07T23:56:53.450Z,15.30
